createdAt,value
2023-05-08T00:00:58.714Z,14.67
2023-05-08T00:01:59.104Z,14.66
2023-05-08T00:02:59.699Z,14.65
2023-05-08T00:04:00.482Z,14.64
2023-05-08T00:05:00.835Z,14.63
2023-05-08T00:06:01.304Z,14.62
2023-05-08T00:07:01.780Z,14.60
2023-05-08T00:08:02.242Z,14.59
2023-05-08T00:09:03.015Z,14.58
2023-05-08T00:10:03.749Z,14.57
2023-05-08T00:11:04.133Z,14.56
2023-05-08T00:12:04.725Z,14.54
2023-05-08T00:13:05.207Z,14.53
2023-05-08T00:14:05.644Z,14.52
2023-05-08T00:15:05.875Z,14.50
2023-05-08T00:16:06.644Z,14.49
2023-05-08T00:17:07.119Z,14.48
2023-05-08T00:18:07.658Z,14.46
2023-05-08T00:19:08.016Z,14.45
2023-05-08T00:20:08.500Z,14.43
2023-05-08T00:21:08.929Z,14.42
2023-05-08T00:22:09.451Z,14.40
2023-05-08T00:23:09.855Z,14.39
2023-05-08T00:24:10.291Z,14.37
2023-05-08T00:25:10.761Z,14.36
2023-05-08T00:26:11.336Z,14.34
2023-05-08T00:27:11.805Z,14.33
2023-05-08T00:27:21.367Z,14.33
2023-05-08T00:28:21.897Z,14.32
2023-05-08T00:29:22.835Z,14.31
2023-05-08T00:30:23.320Z,14.30
2023-05-08T00:31:24.305Z,14.30
2023-05-08T00:32:24.891Z,14.29
2023-05-08T00:33:25.220Z,14.29
2023-05-08T00:34:25.390Z,14.28
2023-05-08T00:35:26.054Z,14.28
2023-05-08T00:36:26.512Z,14.28
2023-05-08T00:37:27.132Z,14.28
2023-05-08T00:38:27.606Z,14.28
2023-05-08T00:39:27.613Z,14.29
2023-05-08T00:40:28.266Z,14.29
2023-05-08T00:41:28.812Z,14.29
2023-05-08T00:42:29.229Z,14.29
2023-05-08T00:43:29.753Z,14.29
2023-05-08T00:44:30.593Z,14.29
2023-05-08T00:45:31.005Z,14.29
2023-05-08T00:46:31.428Z,14.29
2023-05-08T00:47:32.204Z,14.30
2023-05-08T00:48:32.874Z,14.30
2023-05-08T00:49:33.347Z,14.30
2023-05-08T00:50:33.853Z,14.30
2023-05-08T00:51:34.348Z,14.30
2023-05-08T00:52:35.333Z,14.30
2023-05-08T00:53:35.804Z,14.30
2023-05-08T00:54:36.264Z,14.31
2023-05-08T00:55:36.833Z,14.31
2023-05-08T00:56:37.336Z,14.31
2023-05-08T00:57:38.120Z,14.31
2023-05-08T00:57:46.854Z,14.31
2023-05-08T00:58:47.363Z,14.31
2023-05-08T00:59:48.068Z,14.31
2023-05-08T01:00:48.438Z,14.30
2023-05-08T01:01:48.996Z,14.30
2023-05-08T01:02:49.459Z,14.30
2023-05-08T01:03:49.967Z,14.30
2023-05-08T01:04:50.255Z,14.30
2023-05-08T01:05:50.658Z,14.30
2023-05-08T01:06:51.117Z,14.30
2023-05-08T01:07:51.620Z,14.30
2023-05-08T01:08:52.116Z,14.30
2023-05-08T01:09:52.533Z,14.30
2023-05-08T01:10:52.970Z,14.30
2023-05-08T01:11:53.806Z,14.30
2023-05-08T01:12:54.433Z,14.29
2023-05-08T01:13:54.844Z,14.29
2023-05-08T01:14:55.341Z,14.29
2023-05-08T01:15:55.862Z,14.28
2023-05-08T01:16:56.477Z,14.28
2023-05-08T01:17:56.910Z,14.28
2023-05-08T01:18:57.477Z,14.27
2023-05-08T01:19:58.178Z,14.27
2023-05-08T01:20:58.961Z,14.26
2023-05-08T01:21:59.582Z,14.26
2023-05-08T01:23:00.254Z,14.25
2023-05-08T01:24:00.888Z,14.25
2023-05-08T01:25:02.579Z,14.24
2023-05-08T01:26:03.289Z,14.23
2023-05-08T01:27:02.823Z,14.22
2023-05-08T01:28:03.411Z,14.21
2023-05-08T01:28:12.535Z,14.20
2023-05-08T01:29:13.119Z,14.19
2023-05-08T01:30:13.848Z,14.18
2023-05-08T01:31:14.055Z,14.17
2023-05-08T01:32:14.616Z,14.16
2023-05-08T01:33:15.212Z,14.15
2023-05-08T01:34:15.611Z,14.14
2023-05-08T01:35:16.019Z,14.12
2023-05-08T01:36:17.687Z,14.11
2023-05-08T01:37:17.225Z,14.09
2023-05-08T01:38:18.099Z,14.08
2023-05-08T01:39:18.537Z,14.06
2023-05-08T01:40:18.922Z,14.05
2023-05-08T01:41:19.434Z,14.04
2023-05-08T01:42:19.844Z,14.02
2023-05-08T01:43:20.426Z,14.00
2023-05-08T01:44:21.003Z,13.99
2023-05-08T01:45:21.424Z,13.97
2023-05-08T01:46:22.199Z,13.95
2023-05-08T01:47:22.671Z,13.93
2023-05-08T01:48:23.544Z,13.92
2023-05-08T01:49:24.274Z,13.91
2023-05-08T01:50:24.673Z,13.89
2023-05-08T01:51:25.069Z,13.88
2023-05-08T01:52:25.459Z,13.87
2023-05-08T01:53:25.994Z,13.86
2023-05-08T01:54:26.468Z,13.85
2023-05-08T01:55:26.988Z,13.84
2023-05-08T01:56:27.773Z,13.83
2023-05-08T01:57:28.189Z,13.82
2023-05-08T01:58:28.884Z,13.81
2023-05-08T01:59:29.568Z,13.79
2023-05-08T01:59:38.204Z,13.78
2023-05-08T02:00:38.670Z,13.76
2023-05-08T02:01:39.522Z,13.75
2023-05-08T02:02:40.036Z,13.74
2023-05-08T02:03:40.548Z,13.74
2023-05-08T02:04:41.099Z,13.73
2023-05-08T02:05:41.983Z,13.72
2023-05-08T02:06:42.474Z,13.71
2023-05-08T02:07:43.040Z,13.70
2023-05-08T02:09:16.064Z,13.69
2023-05-08T02:10:16.524Z,13.68
2023-05-08T02:11:17.476Z,13.67
2023-05-08T02:12:18.187Z,13.66
2023-05-08T02:13:18.785Z,13.65
2023-05-08T02:14:19.240Z,13.65
2023-05-08T02:15:19.735Z,13.64
2023-05-08T02:16:20.514Z,13.64
2023-05-08T02:17:21.284Z,13.63
2023-05-08T02:18:21.887Z,13.63
2023-05-08T02:19:22.427Z,13.62
2023-05-08T02:20:22.948Z,13.61
2023-05-08T02:21:23.433Z,13.61
2023-05-08T02:22:23.951Z,13.60
2023-05-08T02:23:24.484Z,13.60
2023-05-08T02:24:25.242Z,13.60
2023-05-08T02:25:25.936Z,13.59
2023-05-08T02:26:26.769Z,13.58
2023-05-08T02:27:27.425Z,13.57
2023-05-08T02:27:36.556Z,13.55
2023-05-08T02:28:36.653Z,13.54
2023-05-08T02:29:37.203Z,13.53
2023-05-08T02:30:38.150Z,13.53
2023-05-08T02:31:38.620Z,13.52
2023-05-08T02:32:39.047Z,13.51
2023-05-08T02:33:39.459Z,13.50
2023-05-08T02:34:48.042Z,13.49
2023-05-08T02:35:40.287Z,13.48
2023-05-08T02:36:40.700Z,13.47
2023-05-08T02:37:41.367Z,13.46
2023-05-08T02:38:41.914Z,13.45
2023-05-08T02:39:42.497Z,13.45
2023-05-08T02:40:42.960Z,13.44
2023-05-08T02:41:43.812Z,13.42
2023-05-08T02:42:44.224Z,13.40
2023-05-08T02:43:44.744Z,13.38
2023-05-08T02:44:45.757Z,13.36
2023-05-08T02:45:46.193Z,13.34
2023-05-08T02:46:46.704Z,13.33
2023-05-08T02:47:47.682Z,13.31
2023-05-08T02:48:48.434Z,13.29
2023-05-08T02:49:49.298Z,13.28
2023-05-08T02:50:49.768Z,13.27
2023-05-08T02:51:50.273Z,13.26
2023-05-08T02:52:51.253Z,13.25
2023-05-08T02:53:51.681Z,13.25
2023-05-08T02:54:52.172Z,13.24
2023-05-08T02:55:52.636Z,13.24
2023-05-08T02:56:53.307Z,13.24
2023-05-08T02:57:53.814Z,13.23
2023-05-08T02:58:54.011Z,13.23
2023-05-08T02:59:54.680Z,13.23
2023-05-08T03:00:04.324Z,13.23
2023-05-08T03:01:04.391Z,13.23
2023-05-08T03:02:05.113Z,13.22
2023-05-08T03:03:05.927Z,13.22
2023-05-08T03:04:06.625Z,13.22
2023-05-08T03:05:07.050Z,13.22
2023-05-08T03:06:07.533Z,13.23
2023-05-08T03:07:08.062Z,13.23
2023-05-08T03:08:08.516Z,13.23
2023-05-08T03:09:09.082Z,13.23
2023-05-08T03:10:09.615Z,13.23
2023-05-08T03:11:10.196Z,13.22
2023-05-08T03:12:10.576Z,13.22
2023-05-08T03:13:11.014Z,13.22
2023-05-08T03:14:11.411Z,13.22
2023-05-08T03:15:11.922Z,13.22
2023-05-08T03:16:13.512Z,13.22
2023-05-08T03:17:12.531Z,13.22
2023-05-08T03:18:14.121Z,13.22
2023-05-08T03:19:13.987Z,13.23
2023-05-08T03:20:14.689Z,13.23
2023-05-08T03:21:14.943Z,13.22
2023-05-08T03:22:15.415Z,13.22
2023-05-08T03:23:15.853Z,13.22
2023-05-08T03:24:16.291Z,13.23
2023-05-08T03:25:16.988Z,13.23
2023-05-08T03:26:17.525Z,13.23
2023-05-08T03:27:17.946Z,13.23
2023-05-08T03:28:18.410Z,13.23
2023-05-08T03:29:18.830Z,13.23
2023-05-08T03:30:19.300Z,13.24
2023-05-08T03:31:19.812Z,13.24
2023-05-08T03:32:20.590Z,13.24
2023-05-08T03:33:20.966Z,13.24
2023-05-08T03:33:29.611Z,13.10
2023-05-08T03:34:30.214Z,13.11
2023-05-08T03:35:30.708Z,13.12
2023-05-08T03:36:31.269Z,13.13
2023-05-08T03:37:31.924Z,13.14
2023-05-08T03:38:32.360Z,13.14
2023-05-08T03:39:32.769Z,13.15
2023-05-08T03:40:33.723Z,13.16
2023-05-08T03:41:34.599Z,13.16
2023-05-08T03:42:35.272Z,13.17
2023-05-08T03:43:35.954Z,13.17
2023-05-08T03:44:36.539Z,13.18
2023-05-08T03:45:37.510Z,13.18
2023-05-08T03:46:38.349Z,13.19
2023-05-08T03:47:39.144Z,13.20
2023-05-08T03:48:39.760Z,13.20
2023-05-08T03:49:40.555Z,13.20
2023-05-08T03:50:41.191Z,13.21
2023-05-08T03:51:42.016Z,13.21
2023-05-08T03:52:42.755Z,13.21
2023-05-08T03:53:43.415Z,13.21
2023-05-08T03:54:43.545Z,13.21
2023-05-08T03:55:44.267Z,13.21
2023-05-08T03:56:45.123Z,13.21
2023-05-08T03:57:45.750Z,13.21
2023-05-08T03:58:46.354Z,13.21
2023-05-08T03:59:47.098Z,13.21
2023-05-08T04:00:47.809Z,13.20
2023-05-08T04:01:48.871Z,13.20
2023-05-08T04:02:49.370Z,13.20
2023-05-08T04:03:50.154Z,13.20
2023-05-08T04:04:50.602Z,13.19
2023-05-08T04:04:59.723Z,13.19
2023-05-08T04:06:00.311Z,13.18
2023-05-08T04:07:01.055Z,13.18
2023-05-08T04:08:01.649Z,13.17
2023-05-08T04:09:02.199Z,13.16
2023-05-08T04:10:03.005Z,13.15
2023-05-08T04:11:03.558Z,13.15
2023-05-08T04:12:03.669Z,13.14
2023-05-08T04:13:04.542Z,13.14
2023-05-08T04:14:04.913Z,13.13
2023-05-08T04:15:05.247Z,13.12
2023-05-08T04:16:05.689Z,13.11
2023-05-08T04:17:06.325Z,13.10
2023-05-08T04:18:06.715Z,13.09
2023-05-08T04:19:07.119Z,13.08
2023-05-08T04:20:07.682Z,13.07
2023-05-08T04:21:09.186Z,13.07
2023-05-08T04:22:08.767Z,13.06
2023-05-08T04:23:09.168Z,13.05
2023-05-08T04:24:09.520Z,13.05
2023-05-08T04:25:10.219Z,13.04
2023-05-08T04:26:10.374Z,13.04
2023-05-08T04:27:11.015Z,13.03
2023-05-08T04:28:11.508Z,13.03
2023-05-08T04:29:11.893Z,13.03
2023-05-08T04:30:12.835Z,13.03
2023-05-08T04:31:13.535Z,13.02
2023-05-08T04:32:14.607Z,13.02
2023-05-08T04:33:15.291Z,13.02
2023-05-08T04:34:16.024Z,13.02
2023-05-08T04:35:16.786Z,13.02
2023-05-08T04:35:25.430Z,13.02
2023-05-08T04:36:26.233Z,13.02
2023-05-08T04:37:27.211Z,13.02
2023-05-08T04:38:27.756Z,13.02
2023-05-08T04:39:28.144Z,13.02
2023-05-08T04:40:28.694Z,13.02
2023-05-08T04:41:29.756Z,13.02
2023-05-08T04:42:30.215Z,13.02
2023-05-08T04:43:30.992Z,13.03
2023-05-08T04:44:31.344Z,13.03
2023-05-08T04:45:31.979Z,13.03
2023-05-08T04:46:32.707Z,13.03
2023-05-08T04:47:33.339Z,13.03
2023-05-08T04:48:34.249Z,13.02
2023-05-08T04:49:34.335Z,13.02
2023-05-08T04:50:34.991Z,13.02
2023-05-08T04:51:35.588Z,13.02
2023-05-08T04:52:36.240Z,13.01
2023-05-08T04:53:37.181Z,13.01
2023-05-08T04:54:37.186Z,13.01
2023-05-08T04:55:37.994Z,13.00
2023-05-08T04:56:38.718Z,13.00
2023-05-08T04:57:39.458Z,13.00
2023-05-08T04:58:40.209Z,13.00
2023-05-08T04:59:40.923Z,13.00
2023-05-08T05:00:41.022Z,13.00
2023-05-08T05:01:41.686Z,12.99
2023-05-08T05:02:42.454Z,12.99
2023-05-08T05:03:43.077Z,12.99
2023-05-08T05:04:43.868Z,12.98
2023-05-08T05:05:44.535Z,12.98
2023-05-08T05:06:44.911Z,12.98
2023-05-08T05:06:53.608Z,12.98
2023-05-08T05:07:54.222Z,12.98
2023-05-08T05:08:54.285Z,12.98
2023-05-08T05:09:55.060Z,12.98
2023-05-08T05:10:55.969Z,12.98
2023-05-08T05:11:58.127Z,12.97
2023-05-08T05:12:56.865Z,12.97
2023-05-08T05:13:57.538Z,12.97
2023-05-08T05:14:58.196Z,12.97
2023-05-08T05:15:59.955Z,12.97
2023-05-08T05:16:59.363Z,12.97
2023-05-08T05:17:59.881Z,12.97
2023-05-08T05:19:00.709Z,12.98
2023-05-08T05:20:01.252Z,12.98
2023-05-08T05:21:01.948Z,12.98
2023-05-08T05:22:02.341Z,12.99
2023-05-08T05:23:03.001Z,13.00
2023-05-08T05:24:03.507Z,13.01
2023-05-08T05:25:03.982Z,13.02
2023-05-08T05:26:04.386Z,13.02
2023-05-08T05:27:04.932Z,13.03
2023-05-08T05:28:05.374Z,13.04
2023-05-08T05:29:05.949Z,13.04
2023-05-08T05:30:06.423Z,13.05
2023-05-08T05:31:07.108Z,13.05
2023-05-08T05:32:07.440Z,13.06
2023-05-08T05:33:08.241Z,13.07
2023-05-08T05:34:08.762Z,13.07
2023-05-08T05:35:09.283Z,13.08
2023-05-08T05:36:09.909Z,13.09
2023-05-08T05:37:10.398Z,13.09
2023-05-08T05:38:10.811Z,13.09
2023-05-08T05:38:19.509Z,13.10
2023-05-08T05:39:20.166Z,13.10
2023-05-08T05:40:21.071Z,13.10
2023-05-08T05:41:21.788Z,13.11
2023-05-08T05:42:22.529Z,13.11
2023-05-08T05:43:23.433Z,13.12
2023-05-08T05:44:23.873Z,13.12
2023-05-08T05:45:24.343Z,13.13
2023-05-08T05:46:24.820Z,13.13
2023-05-08T05:47:25.412Z,13.14
2023-05-08T05:48:25.870Z,13.14
2023-05-08T05:49:26.323Z,13.15
2023-05-08T05:50:26.764Z,13.16
2023-05-08T05:51:27.275Z,13.17
2023-05-08T05:52:27.698Z,13.18
2023-05-08T05:53:28.362Z,13.18
2023-05-08T05:54:28.884Z,13.19
2023-05-08T05:55:29.385Z,13.20
2023-05-08T05:56:29.918Z,13.22
2023-05-08T05:57:30.510Z,13.23
2023-05-08T05:58:30.993Z,13.24
2023-05-08T05:59:31.575Z,13.25
2023-05-08T06:00:32.460Z,13.26
2023-05-08T06:01:32.869Z,13.27
2023-05-08T06:02:33.443Z,13.29
2023-05-08T06:03:33.939Z,13.30
2023-05-08T06:04:34.502Z,13.31
2023-05-08T06:05:34.742Z,13.32
2023-05-08T06:06:35.572Z,13.33
2023-05-08T06:07:36.209Z,13.34
2023-05-08T06:08:36.833Z,13.35
2023-05-08T06:09:37.669Z,13.37
2023-05-08T06:09:47.309Z,13.38
2023-05-08T06:10:47.410Z,13.39
2023-05-08T06:11:47.815Z,13.40
2023-05-08T06:12:48.489Z,13.41
2023-05-08T06:13:50.502Z,13.42
2023-05-08T06:14:49.279Z,13.43
2023-05-08T06:15:49.929Z,13.44
2023-05-08T06:16:51.517Z,13.44
2023-05-08T06:17:51.005Z,13.45
2023-05-08T06:18:51.496Z,13.45
2023-05-08T06:19:51.940Z,13.46
2023-05-08T06:20:52.771Z,13.47
2023-05-08T06:21:53.519Z,13.47
2023-05-08T06:22:53.756Z,13.47
2023-05-08T06:23:54.252Z,13.47
2023-05-08T06:24:54.694Z,13.47
2023-05-08T06:25:55.212Z,13.47
2023-05-08T06:26:55.612Z,13.48
2023-05-08T06:27:56.070Z,13.48
2023-05-08T06:28:56.612Z,13.48
2023-05-08T06:29:57.136Z,13.49
2023-05-08T06:30:57.523Z,13.49
2023-05-08T06:31:58.182Z,13.50
2023-05-08T06:32:58.781Z,13.51
2023-05-08T06:34:00.168Z,13.52
2023-05-08T06:34:59.991Z,13.53
2023-05-08T06:36:00.869Z,13.54
2023-05-08T06:37:01.778Z,13.55
2023-05-08T06:38:02.241Z,13.56
2023-05-08T06:39:02.735Z,13.57
2023-05-08T06:40:12.062Z,13.58
2023-05-08T06:41:04.569Z,13.59
2023-05-08T06:42:04.911Z,13.60
2023-05-08T06:43:05.484Z,13.61
2023-05-08T06:43:14.110Z,13.62
2023-05-08T06:44:14.825Z,13.63
2023-05-08T06:45:15.555Z,13.65
2023-05-08T06:46:16.155Z,13.66
2023-05-08T06:47:16.555Z,13.68
2023-05-08T06:48:17.084Z,13.69
2023-05-08T06:49:17.777Z,13.71
2023-05-08T06:50:18.334Z,13.73
2023-05-08T06:51:18.855Z,13.75
2023-05-08T06:52:19.148Z,13.77
2023-05-08T06:53:19.240Z,13.79
2023-05-08T06:54:19.715Z,13.81
2023-05-08T06:55:19.901Z,13.82
2023-05-08T06:56:20.486Z,13.83
2023-05-08T06:57:23.044Z,13.85
2023-05-08T06:58:21.370Z,13.87
2023-05-08T06:59:22.036Z,13.89
2023-05-08T07:00:23.575Z,13.90
2023-05-08T07:01:23.080Z,13.92
2023-05-08T07:02:23.827Z,13.93
2023-05-08T07:03:24.565Z,13.94
2023-05-08T07:04:25.080Z,13.95
2023-05-08T07:05:25.668Z,13.96
2023-05-08T07:06:26.197Z,13.97
2023-05-08T07:07:26.789Z,13.98
2023-05-08T07:08:26.920Z,13.98
2023-05-08T07:09:27.704Z,13.99
2023-05-08T07:10:29.347Z,14.00
2023-05-08T07:11:28.804Z,14.01
2023-05-08T07:12:29.272Z,14.01
2023-05-08T07:13:29.979Z,14.02
2023-05-08T07:13:39.682Z,14.02
2023-05-08T07:14:40.111Z,14.02
2023-05-08T07:15:40.567Z,14.03
2023-05-08T07:16:40.726Z,14.03
2023-05-08T07:17:41.169Z,14.02
2023-05-08T07:18:41.414Z,14.02
2023-05-08T07:19:42.359Z,14.02
2023-05-08T07:20:42.876Z,14.02
2023-05-08T07:21:43.376Z,14.02
2023-05-08T07:22:44.305Z,14.02
2023-05-08T07:23:44.835Z,14.02
2023-05-08T07:24:45.330Z,14.02
2023-05-08T07:25:45.884Z,14.02
2023-05-08T07:26:46.507Z,14.02
2023-05-08T07:27:47.263Z,14.01
2023-05-08T07:28:47.818Z,14.01
2023-05-08T07:29:48.209Z,14.00
2023-05-08T07:30:48.862Z,13.99
2023-05-08T07:31:49.726Z,13.98
2023-05-08T07:32:50.202Z,13.97
2023-05-08T07:33:50.700Z,13.97
2023-05-08T07:34:51.583Z,13.96
2023-05-08T07:35:52.009Z,13.95
2023-05-08T07:36:52.430Z,13.95
2023-05-08T07:37:52.519Z,13.95
2023-05-08T07:38:53.283Z,13.94
2023-05-08T07:39:53.674Z,13.93
2023-05-08T07:40:54.236Z,13.92
2023-05-08T07:41:54.768Z,13.92
2023-05-08T07:42:55.301Z,13.91
2023-05-08T07:43:55.849Z,13.90
2023-05-08T07:44:55.751Z,13.89
2023-05-08T07:45:04.409Z,13.75
2023-05-08T07:46:15.754Z,13.75
2023-05-08T07:47:05.361Z,13.74
2023-05-08T07:48:05.781Z,13.74
2023-05-08T07:49:06.224Z,13.74
2023-05-08T07:50:06.710Z,13.74
2023-05-08T07:51:07.116Z,13.74
2023-05-08T07:52:07.686Z,13.74
2023-05-08T07:53:08.575Z,13.74
2023-05-08T07:54:08.817Z,13.73
2023-05-08T07:55:09.404Z,13.74
2023-05-08T07:56:10.067Z,13.73
2023-05-08T07:57:10.523Z,13.73
2023-05-08T07:58:11.178Z,13.73
2023-05-08T07:59:11.743Z,13.73
2023-05-08T08:00:12.213Z,13.73
2023-05-08T08:01:12.798Z,13.72
2023-05-08T08:02:13.271Z,13.72
2023-05-08T08:03:13.920Z,13.71
2023-05-08T08:04:15.428Z,13.71
2023-05-08T08:05:15.071Z,13.70
2023-05-08T08:06:15.271Z,13.70
2023-05-08T08:07:15.932Z,13.70
2023-05-08T08:08:16.491Z,13.70
2023-05-08T08:09:16.962Z,13.70
2023-05-08T08:10:17.331Z,13.70
2023-05-08T08:11:18.759Z,13.70
2023-05-08T08:11:31.900Z,13.70
2023-05-08T08:12:32.417Z,13.71
2023-05-08T08:13:33.054Z,13.71
2023-05-08T08:14:33.649Z,13.71
2023-05-08T08:15:34.078Z,13.71
2023-05-08T08:16:34.704Z,13.71
2023-05-08T08:17:35.235Z,13.71
2023-05-08T08:18:35.891Z,13.71
2023-05-08T08:19:37.482Z,13.71
2023-05-08T08:20:39.387Z,13.71
2023-05-08T08:21:37.835Z,13.71
2023-05-08T08:22:38.420Z,13.72
2023-05-08T08:23:38.712Z,13.72
2023-05-08T08:24:39.254Z,13.73
2023-05-08T08:25:39.629Z,13.73
2023-05-08T08:26:40.435Z,13.74
2023-05-08T08:27:41.004Z,13.75
2023-05-08T08:28:41.699Z,13.75
2023-05-08T08:29:44.419Z,13.76
2023-05-08T08:30:42.304Z,13.77
2023-05-08T08:32:27.333Z,13.77
2023-05-08T08:33:25.520Z,13.78
2023-05-08T08:34:37.216Z,13.78
2023-05-08T08:36:35.064Z,13.80
2023-05-08T08:40:46.067Z,13.81
2023-05-08T08:41:46.887Z,13.82
2023-05-08T08:42:50.207Z,13.85
2023-05-08T08:43:47.833Z,13.87
2023-05-08T08:44:48.932Z,13.89
2023-05-08T08:44:57.544Z,13.91
2023-05-08T08:45:58.241Z,13.92
2023-05-08T08:46:58.929Z,13.94
2023-05-08T08:47:59.476Z,13.95
2023-05-08T08:49:00.027Z,13.96
2023-05-08T08:50:00.554Z,13.98
2023-05-08T08:51:01.147Z,13.99
2023-05-08T08:52:01.846Z,14.01
2023-05-08T08:53:02.330Z,14.03
2023-05-08T08:54:02.789Z,14.05
2023-05-08T08:55:03.386Z,14.07
2023-05-08T08:56:03.989Z,14.09
2023-05-08T08:57:04.980Z,14.11
2023-05-08T08:58:05.445Z,14.12
2023-05-08T08:59:06.056Z,14.14
2023-05-08T09:00:07.157Z,14.17
2023-05-08T09:01:07.608Z,14.20
2023-05-08T09:02:08.327Z,14.22
2023-05-08T09:03:09.022Z,14.25
2023-05-08T09:04:09.717Z,14.27
2023-05-08T09:05:10.145Z,14.29
2023-05-08T09:06:10.621Z,14.31
2023-05-08T09:07:11.198Z,14.33
2023-05-08T09:08:11.755Z,14.35
2023-05-08T09:09:12.370Z,14.38
2023-05-08T09:10:12.974Z,14.39
2023-05-08T09:11:12.933Z,14.41
2023-05-08T09:12:13.598Z,14.42
2023-05-08T09:13:14.416Z,14.42
2023-05-08T09:14:14.853Z,14.43
2023-05-08T09:15:15.825Z,14.45
2023-05-08T09:16:16.155Z,14.47
2023-05-08T09:16:24.731Z,14.49
2023-05-08T09:17:25.268Z,14.51
2023-05-08T09:18:26.162Z,14.53
2023-05-08T09:19:28.769Z,14.54
2023-05-08T09:20:27.172Z,14.55
2023-05-08T09:21:27.288Z,14.55
2023-05-08T09:22:28.025Z,14.56
2023-05-08T09:23:28.050Z,14.58
2023-05-08T09:24:31.073Z,14.60
2023-05-08T09:25:29.161Z,14.63
2023-05-08T09:26:29.721Z,14.66
2023-05-08T09:27:30.291Z,14.70
2023-05-08T09:28:30.931Z,14.73
2023-05-08T09:29:31.603Z,14.76
2023-05-08T09:30:32.237Z,14.79
2023-05-08T09:31:32.917Z,14.82
2023-05-08T09:32:33.591Z,14.86
2023-05-08T09:33:34.071Z,14.89
2023-05-08T09:34:34.559Z,14.93
2023-05-08T09:35:35.159Z,14.96
2023-05-08T09:36:36.077Z,15.01
2023-05-08T09:37:36.400Z,15.05
2023-05-08T09:38:37.244Z,15.10
2023-05-08T09:39:37.740Z,15.15
2023-05-08T09:40:38.364Z,15.20
2023-05-08T09:41:38.455Z,15.26
2023-05-08T09:42:38.582Z,15.32
2023-05-08T09:43:39.182Z,15.38
2023-05-08T09:44:39.238Z,15.44
2023-05-08T09:45:39.910Z,15.50
2023-05-08T09:45:48.890Z,15.56
2023-05-08T09:46:49.348Z,15.61
2023-05-08T09:47:49.883Z,15.66
2023-05-08T09:48:50.423Z,15.72
2023-05-08T09:49:50.880Z,15.78
2023-05-08T09:50:51.325Z,15.84
2023-05-08T09:51:51.820Z,15.90
2023-05-08T09:52:52.224Z,15.96
2023-05-08T09:53:52.783Z,16.02
2023-05-08T09:54:53.569Z,16.09
2023-05-08T09:55:54.223Z,16.14
2023-05-08T09:56:54.505Z,16.20
2023-05-08T09:57:55.146Z,16.26
2023-05-08T09:58:55.660Z,16.32
2023-05-08T09:59:56.054Z,16.38
2023-05-08T10:00:56.606Z,16.45
2023-05-08T10:01:56.884Z,16.52
2023-05-08T10:02:57.327Z,16.59
2023-05-08T10:03:57.850Z,16.66
2023-05-08T10:04:58.466Z,16.72
2023-05-08T10:05:58.931Z,16.77
2023-05-08T10:06:59.340Z,16.81
2023-05-08T10:07:59.925Z,16.85
2023-05-08T10:09:00.426Z,16.90
2023-05-08T10:10:00.877Z,16.91
2023-05-08T10:11:01.627Z,16.93
2023-05-08T10:12:02.032Z,16.95
2023-05-08T10:13:03.019Z,16.97
2023-05-08T10:14:03.472Z,16.99
2023-05-08T10:15:04.015Z,17.01
2023-05-08T10:16:04.842Z,17.02
2023-05-08T10:17:04.883Z,17.04
2023-05-08T10:18:05.442Z,17.05
2023-05-08T10:18:14.012Z,14.20
2023-05-08T10:19:14.792Z,17.28
2023-05-08T10:20:15.528Z,17.29
2023-05-08T10:21:15.834Z,17.28
2023-05-08T10:22:16.661Z,17.28
2023-05-08T10:23:17.071Z,17.27
2023-05-08T10:24:17.575Z,17.27
2023-05-08T10:25:18.138Z,17.27
2023-05-08T10:26:18.679Z,17.28
2023-05-08T10:27:19.323Z,17.29
2023-05-08T10:28:19.816Z,17.29
2023-05-08T10:29:20.360Z,17.30
2023-05-08T10:30:20.969Z,17.31
2023-05-08T10:31:21.372Z,17.32
2023-05-08T10:32:22.312Z,17.33
2023-05-08T10:33:22.841Z,17.34
2023-05-08T10:34:23.174Z,17.36
2023-05-08T10:35:23.529Z,17.38
2023-05-08T10:36:24.264Z,17.40
2023-05-08T10:37:24.964Z,17.42
2023-05-08T10:38:25.516Z,17.43
2023-05-08T10:39:26.277Z,17.45
2023-05-08T10:40:26.752Z,17.48
2023-05-08T10:41:27.243Z,17.51
2023-05-08T10:42:27.549Z,17.54
2023-05-08T10:43:28.060Z,17.57
2023-05-08T10:44:28.096Z,17.61
2023-05-08T10:45:28.703Z,17.65
2023-05-08T10:46:29.621Z,17.68
2023-05-08T10:47:30.020Z,17.71
2023-05-08T10:48:30.648Z,17.74
2023-05-08T10:49:31.053Z,17.77
2023-05-08T10:49:41.968Z,17.64
2023-05-08T10:50:42.107Z,17.68
2023-05-08T10:51:42.885Z,17.72
2023-05-08T10:52:44.546Z,17.76
2023-05-08T10:53:44.237Z,17.79
2023-05-08T10:54:44.349Z,17.82
2023-05-08T10:55:44.944Z,17.85
2023-05-08T10:56:45.486Z,17.89
2023-05-08T10:57:46.059Z,17.91
2023-05-08T10:58:46.733Z,17.94
2023-05-08T10:59:47.398Z,17.97
2023-05-08T11:00:47.768Z,18.00
2023-05-08T11:01:48.532Z,18.03
2023-05-08T11:02:48.751Z,18.05
2023-05-08T11:03:49.759Z,18.06
2023-05-08T11:04:50.411Z,18.07
2023-05-08T11:05:51.196Z,18.09
2023-05-08T11:06:51.822Z,18.10
2023-05-08T11:07:52.340Z,18.11
2023-05-08T11:08:52.856Z,18.11
2023-05-08T11:09:53.405Z,18.11
2023-05-08T11:10:53.985Z,18.11
2023-05-08T11:11:54.609Z,18.10
2023-05-08T11:12:55.140Z,18.09
2023-05-08T11:13:55.369Z,18.07
2023-05-08T11:14:55.718Z,18.05
2023-05-08T11:15:56.424Z,18.02
2023-05-08T11:16:57.301Z,18.00
2023-05-08T11:17:57.900Z,17.97
2023-05-08T11:18:58.533Z,17.95
2023-05-08T11:19:59.101Z,17.93
2023-05-08T11:20:59.594Z,17.92
2023-05-08T11:22:00.388Z,17.90
2023-05-08T11:22:09.802Z,15.68
2023-05-08T11:23:10.170Z,17.60
2023-05-08T11:24:10.807Z,17.60
2023-05-08T11:25:11.389Z,17.60
2023-05-08T11:26:11.538Z,17.60
2023-05-08T11:27:12.522Z,17.61
2023-05-08T11:28:12.540Z,17.61
2023-05-08T11:29:13.084Z,17.62
2023-05-08T11:30:14.668Z,17.62
2023-05-08T11:31:14.087Z,17.62
2023-05-08T11:32:14.584Z,17.62
2023-05-08T11:33:15.138Z,17.61
2023-05-08T11:34:15.606Z,17.62
2023-05-08T11:35:16.249Z,17.62
2023-05-08T11:36:16.869Z,17.63
2023-05-08T11:37:18.389Z,17.63
2023-05-08T11:38:17.939Z,17.64
2023-05-08T11:39:18.567Z,17.63
2023-05-08T11:40:18.733Z,17.62
2023-05-08T11:41:19.333Z,17.62
2023-05-08T11:42:20.076Z,17.62
2023-05-08T11:43:21.857Z,17.62
2023-05-08T11:44:21.383Z,17.63
2023-05-08T11:45:21.943Z,17.64
2023-05-08T11:46:22.548Z,17.64
2023-05-08T11:47:23.067Z,17.64
2023-05-08T11:48:23.495Z,17.64
2023-05-08T11:49:27.122Z,17.64
2023-05-08T11:50:24.487Z,17.64
2023-05-08T11:51:25.082Z,17.62
2023-05-08T11:52:25.649Z,17.61
2023-05-08T11:52:34.329Z,16.03
2023-05-08T11:53:34.991Z,17.34
2023-05-08T11:54:35.653Z,17.33
2023-05-08T11:55:36.118Z,17.33
2023-05-08T11:56:36.629Z,17.32
2023-05-08T11:57:37.114Z,17.30
2023-05-08T11:58:37.584Z,17.28
2023-05-08T11:59:38.052Z,17.27
2023-05-08T12:00:38.479Z,17.27
2023-05-08T12:01:39.158Z,17.27
2023-05-08T12:02:39.862Z,17.26
2023-05-08T12:03:40.325Z,17.26
2023-05-08T12:04:40.794Z,17.26
2023-05-08T12:05:41.268Z,17.27
2023-05-08T12:06:41.954Z,17.29
2023-05-08T12:07:42.650Z,17.30
2023-05-08T12:08:43.172Z,17.32
2023-05-08T12:09:43.677Z,17.33
2023-05-08T12:10:46.740Z,17.34
2023-05-08T12:11:44.891Z,17.34
2023-05-08T12:12:45.652Z,17.36
2023-05-08T12:13:46.308Z,17.38
2023-05-08T12:14:46.780Z,17.40
2023-05-08T12:15:47.313Z,17.42
2023-05-08T12:16:47.884Z,17.44
2023-05-08T12:17:48.420Z,17.46
2023-05-08T12:18:49.139Z,17.48
2023-05-08T12:19:49.680Z,17.51
2023-05-08T12:20:50.266Z,17.53
2023-05-08T12:21:51.054Z,17.55
2023-05-08T12:22:51.716Z,17.56
2023-05-08T12:23:52.226Z,17.58
2023-05-08T12:24:01.892Z,16.19
2023-05-08T12:25:02.740Z,18.09
2023-05-08T12:26:03.333Z,18.09
2023-05-08T12:27:03.981Z,18.09
2023-05-08T12:28:04.510Z,18.11
2023-05-08T12:29:05.111Z,18.11
2023-05-08T12:30:05.725Z,18.13
2023-05-08T12:31:06.535Z,18.14
2023-05-08T12:32:07.389Z,18.15
2023-05-08T12:33:08.236Z,18.17
2023-05-08T12:34:08.426Z,18.19
2023-05-08T12:35:09.054Z,18.21
2023-05-08T12:36:09.535Z,18.22
2023-05-08T12:37:10.127Z,18.24
2023-05-08T12:38:10.704Z,18.27
2023-05-08T12:39:11.057Z,18.30
2023-05-08T12:40:12.069Z,18.33
2023-05-08T12:41:12.241Z,18.38
2023-05-08T12:42:12.263Z,18.42
2023-05-08T12:43:12.782Z,18.47
2023-05-08T12:44:13.376Z,18.53
2023-05-08T12:45:13.875Z,18.59